sensor_id;sensor_type;location;lat;lon;timestamp;P1;durP1;ratioP1;P2;durP2;ratioP2
6987;SDS011;3534;49.960;8.018;2023-05-13T00:00:21;4.57;;;3.47;;
6987;SDS011;3534;49.960;8.018;2023-05-13T00:02:48;5.23;;;3.23;;
6987;SDS011;3534;49.960;8.018;2023-05-13T00:05:14;4.40;;;3.27;;
6987;SDS011;3534;49.960;8.018;2023-05-13T00:07:41;4.30;;;3.80;;
6987;SDS011;3534;49.960;8.018;2023-05-13T00:10:08;7.00;;;3.60;;
6987;SDS011;3534;49.960;8.018;2023-05-13T00:12:35;4.07;;;3.20;;
6987;SDS011;3534;49.960;8.018;2023-05-13T00:15:03;3.50;;;3.20;;
6987;SDS011;3534;49.960;8.018;2023-05-13T00:17:32;11.10;;;3.50;;
6987;SDS011;3534;49.960;8.018;2023-05-13T00:19:59;6.73;;;3.43;;
6987;SDS011;3534;49.960;8.018;2023-05-13T00:22:25;5.90;;;3.43;;
6987;SDS011;3534;49.960;8.018;2023-05-13T00:24:52;4.73;;;3.70;;
6987;SDS011;3534;49.960;8.018;2023-05-13T00:27:19;4.60;;;3.70;;
6987;SDS011;3534;49.960;8.018;2023-05-13T00:29:45;5.20;;;3.60;;
6987;SDS011;3534;49.960;8.018;2023-05-13T00:32:12;4.30;;;3.30;;
6987;SDS011;3534;49.960;8.018;2023-05-13T00:34:40;8.30;;;3.27;;
6987;SDS011;3534;49.960;8.018;2023-05-13T00:37:07;7.70;;;3.43;;
6987;SDS011;3534;49.960;8.018;2023-05-13T00:39:35;8.30;;;3.50;;
6987;SDS011;3534;49.960;8.018;2023-05-13T00:42:01;4.50;;;4.10;;
6987;SDS011;3534;49.960;8.018;2023-05-13T00:44:29;8.43;;;4.07;;
6987;SDS011;3534;49.960;8.018;2023-05-13T00:46:56;4.30;;;3.80;;
6987;SDS011;3534;49.960;8.018;2023-05-13T00:49:24;4.73;;;4.27;;
6987;SDS011;3534;49.960;8.018;2023-05-13T00:51:52;4.90;;;3.60;;
6987;SDS011;3534;49.960;8.018;2023-05-13T00:54:19;4.33;;;3.53;;
6987;SDS011;3534;49.960;8.018;2023-05-13T00:56:45;8.20;;;4.00;;
6987;SDS011;3534;49.960;8.018;2023-05-13T00:59:12;3.93;;;3.47;;
6987;SDS011;3534;49.960;8.018;2023-05-13T01:01:45;4.77;;;3.50;;
6987;SDS011;3534;49.960;8.018;2023-05-13T01:04:19;4.73;;;3.83;;
6987;SDS011;3534;49.960;8.018;2023-05-13T01:06:55;7.87;;;3.07;;
6987;SDS011;3534;49.960;8.018;2023-05-13T01:09:37;4.43;;;3.43;;
6987;SDS011;3534;49.960;8.018;2023-05-13T01:12:15;4.77;;;3.73;;
6987;SDS011;3534;49.960;8.018;2023-05-13T01:14:47;4.47;;;3.87;;
6987;SDS011;3534;49.960;8.018;2023-05-13T01:17:26;10.20;;;4.20;;
6987;SDS011;3534;49.960;8.018;2023-05-13T01:19:57;4.37;;;3.97;;
6987;SDS011;3534;49.960;8.018;2023-05-13T01:22:27;4.17;;;3.80;;
6987;SDS011;3534;49.960;8.018;2023-05-13T01:24:53;9.27;;;4.00;;
6987;SDS011;3534;49.960;8.018;2023-05-13T01:27:20;8.70;;;4.13;;
6987;SDS011;3534;49.960;8.018;2023-05-13T01:29:47;12.23;;;3.70;;
6987;SDS011;3534;49.960;8.018;2023-05-13T01:32:15;4.53;;;3.80;;
6987;SDS011;3534;49.960;8.018;2023-05-13T01:34:43;10.33;;;3.80;;
6987;SDS011;3534;49.960;8.018;2023-05-13T01:37:10;4.70;;;4.07;;
6987;SDS011;3534;49.960;8.018;2023-05-13T01:39:38;5.57;;;4.23;;
6987;SDS011;3534;49.960;8.018;2023-05-13T01:42:06;4.97;;;4.03;;
6987;SDS011;3534;49.960;8.018;2023-05-13T01:44:33;5.90;;;3.60;;
6987;SDS011;3534;49.960;8.018;2023-05-13T01:47:00;6.03;;;4.43;;
6987;SDS011;3534;49.960;8.018;2023-05-13T01:49:26;5.20;;;4.70;;
6987;SDS011;3534;49.960;8.018;2023-05-13T01:51:53;6.20;;;3.80;;
6987;SDS011;3534;49.960;8.018;2023-05-13T01:54:20;8.33;;;4.70;;
6987;SDS011;3534;49.960;8.018;2023-05-13T01:56:48;8.00;;;5.50;;
6987;SDS011;3534;49.960;8.018;2023-05-13T01:59:14;5.47;;;4.20;;
6987;SDS011;3534;49.960;8.018;2023-05-13T02:01:41;12.37;;;4.87;;
6987;SDS011;3534;49.960;8.018;2023-05-13T02:04:09;4.70;;;4.27;;
6987;SDS011;3534;49.960;8.018;2023-05-13T02:06:35;5.53;;;4.10;;
6987;SDS011;3534;49.960;8.018;2023-05-13T02:09:02;4.07;;;3.73;;
6987;SDS011;3534;49.960;8.018;2023-05-13T02:11:29;8.17;;;4.07;;
6987;SDS011;3534;49.960;8.018;2023-05-13T02:13:57;5.20;;;4.07;;
6987;SDS011;3534;49.960;8.018;2023-05-13T02:16:23;7.00;;;4.47;;
6987;SDS011;3534;49.960;8.018;2023-05-13T02:18:50;7.80;;;4.30;;
6987;SDS011;3534;49.960;8.018;2023-05-13T02:21:17;5.37;;;4.40;;
6987;SDS011;3534;49.960;8.018;2023-05-13T02:23:44;6.87;;;4.37;;
6987;SDS011;3534;49.960;8.018;2023-05-13T02:26:11;8.37;;;5.10;;
6987;SDS011;3534;49.960;8.018;2023-05-13T02:28:37;11.17;;;4.40;;
6987;SDS011;3534;49.960;8.018;2023-05-13T02:31:05;6.93;;;4.00;;
6987;SDS011;3534;49.960;8.018;2023-05-13T02:33:32;7.10;;;3.90;;
6987;SDS011;3534;49.960;8.018;2023-05-13T02:35:58;7.67;;;4.73;;
6987;SDS011;3534;49.960;8.018;2023-05-13T02:38:25;7.90;;;4.33;;
6987;SDS011;3534;49.960;8.018;2023-05-13T02:40:52;5.43;;;4.50;;
6987;SDS011;3534;49.960;8.018;2023-05-13T02:43:18;14.83;;;4.37;;
6987;SDS011;3534;49.960;8.018;2023-05-13T02:45:47;5.10;;;4.13;;
6987;SDS011;3534;49.960;8.018;2023-05-13T02:48:15;4.43;;;3.60;;
6987;SDS011;3534;49.960;8.018;2023-05-13T02:50:42;5.27;;;4.10;;
6987;SDS011;3534;49.960;8.018;2023-05-13T02:53:08;7.83;;;4.10;;
6987;SDS011;3534;49.960;8.018;2023-05-13T02:55:35;5.20;;;4.37;;
6987;SDS011;3534;49.960;8.018;2023-05-13T02:58:02;4.93;;;4.07;;
6987;SDS011;3534;49.960;8.018;2023-05-13T03:00:29;5.70;;;4.27;;
6987;SDS011;3534;49.960;8.018;2023-05-13T03:02:55;6.80;;;3.97;;
6987;SDS011;3534;49.960;8.018;2023-05-13T03:05:23;5.77;;;4.43;;
6987;SDS011;3534;49.960;8.018;2023-05-13T03:07:50;4.50;;;4.10;;
6987;SDS011;3534;49.960;8.018;2023-05-13T03:10:16;7.00;;;4.10;;
6987;SDS011;3534;49.960;8.018;2023-05-13T03:12:43;6.20;;;5.30;;
6987;SDS011;3534;49.960;8.018;2023-05-13T03:15:10;13.80;;;7.07;;
6987;SDS011;3534;49.960;8.018;2023-05-13T03:17:37;20.90;;;10.90;;
6987;SDS011;3534;49.960;8.018;2023-05-13T03:20:04;19.07;;;8.10;;
6987;SDS011;3534;49.960;8.018;2023-05-13T03:22:33;5.80;;;4.90;;
6987;SDS011;3534;49.960;8.018;2023-05-13T03:25:02;10.60;;;3.80;;
6987;SDS011;3534;49.960;8.018;2023-05-13T03:27:29;7.73;;;5.00;;
6987;SDS011;3534;49.960;8.018;2023-05-13T03:29:56;9.40;;;4.13;;
6987;SDS011;3534;49.960;8.018;2023-05-13T03:32:23;5.67;;;5.17;;
6987;SDS011;3534;49.960;8.018;2023-05-13T03:34:54;11.17;;;5.73;;
6987;SDS011;3534;49.960;8.018;2023-05-13T03:37:21;9.73;;;6.40;;
6987;SDS011;3534;49.960;8.018;2023-05-13T03:39:49;7.27;;;4.60;;
6987;SDS011;3534;49.960;8.018;2023-05-13T03:42:16;6.73;;;5.20;;
6987;SDS011;3534;49.960;8.018;2023-05-13T03:44:43;5.07;;;4.60;;
6987;SDS011;3534;49.960;8.018;2023-05-13T03:47:09;8.10;;;4.80;;
6987;SDS011;3534;49.960;8.018;2023-05-13T03:49:36;6.67;;;5.73;;
6987;SDS011;3534;49.960;8.018;2023-05-13T03:52:03;8.80;;;5.00;;
6987;SDS011;3534;49.960;8.018;2023-05-13T03:54:31;7.40;;;5.90;;
6987;SDS011;3534;49.960;8.018;2023-05-13T03:56:59;11.10;;;6.00;;
6987;SDS011;3534;49.960;8.018;2023-05-13T03:59:26;5.40;;;4.70;;
6987;SDS011;3534;49.960;8.018;2023-05-13T04:01:53;8.40;;;4.73;;
6987;SDS011;3534;49.960;8.018;2023-05-13T04:04:19;7.33;;;4.57;;
6987;SDS011;3534;49.960;8.018;2023-05-13T04:06:46;4.80;;;4.20;;
6987;SDS011;3534;49.960;8.018;2023-05-13T04:09:13;7.47;;;4.30;;
6987;SDS011;3534;49.960;8.018;2023-05-13T04:11:39;5.00;;;4.50;;
6987;SDS011;3534;49.960;8.018;2023-05-13T04:14:07;9.63;;;4.90;;
6987;SDS011;3534;49.960;8.018;2023-05-13T04:16:34;7.33;;;5.90;;
6987;SDS011;3534;49.960;8.018;2023-05-13T04:19:01;9.33;;;6.03;;
6987;SDS011;3534;49.960;8.018;2023-05-13T04:21:28;7.30;;;5.30;;
6987;SDS011;3534;49.960;8.018;2023-05-13T04:23:55;15.80;;;5.70;;
6987;SDS011;3534;49.960;8.018;2023-05-13T04:26:22;7.23;;;5.03;;
6987;SDS011;3534;49.960;8.018;2023-05-13T04:28:48;10.57;;;7.60;;
6987;SDS011;3534;49.960;8.018;2023-05-13T04:31:16;9.77;;;5.53;;
6987;SDS011;3534;49.960;8.018;2023-05-13T04:33:43;10.43;;;4.60;;
6987;SDS011;3534;49.960;8.018;2023-05-13T04:36:10;6.23;;;4.13;;
6987;SDS011;3534;49.960;8.018;2023-05-13T04:38:36;5.47;;;4.43;;
6987;SDS011;3534;49.960;8.018;2023-05-13T04:41:03;6.07;;;4.33;;
6987;SDS011;3534;49.960;8.018;2023-05-13T04:43:30;5.73;;;4.97;;
6987;SDS011;3534;49.960;8.018;2023-05-13T04:45:57;5.63;;;4.80;;
6987;SDS011;3534;49.960;8.018;2023-05-13T04:48:25;5.50;;;4.10;;
6987;SDS011;3534;49.960;8.018;2023-05-13T04:50:52;7.57;;;4.90;;
6987;SDS011;3534;49.960;8.018;2023-05-13T04:53:19;5.13;;;4.47;;
6987;SDS011;3534;49.960;8.018;2023-05-13T04:55:45;5.13;;;4.53;;
6987;SDS011;3534;49.960;8.018;2023-05-13T04:58:13;4.73;;;4.10;;
6987;SDS011;3534;49.960;8.018;2023-05-13T05:00:40;5.70;;;5.00;;
6987;SDS011;3534;49.960;8.018;2023-05-13T05:03:07;5.27;;;4.30;;
6987;SDS011;3534;49.960;8.018;2023-05-13T05:05:35;8.43;;;5.20;;
6987;SDS011;3534;49.960;8.018;2023-05-13T05:08:01;6.57;;;4.67;;
6987;SDS011;3534;49.960;8.018;2023-05-13T05:10:28;4.67;;;4.13;;
6987;SDS011;3534;49.960;8.018;2023-05-13T05:12:55;4.70;;;4.00;;
6987;SDS011;3534;49.960;8.018;2023-05-13T05:15:21;7.80;;;4.60;;
6987;SDS011;3534;49.960;8.018;2023-05-13T05:17:48;5.10;;;4.40;;
6987;SDS011;3534;49.960;8.018;2023-05-13T05:20:15;4.83;;;3.80;;
6987;SDS011;3534;49.960;8.018;2023-05-13T05:22:43;7.10;;;4.40;;
6987;SDS011;3534;49.960;8.018;2023-05-13T05:25:10;6.03;;;4.87;;
6987;SDS011;3534;49.960;8.018;2023-05-13T05:27:36;9.93;;;5.10;;
6987;SDS011;3534;49.960;8.018;2023-05-13T05:30:03;8.43;;;5.37;;
6987;SDS011;3534;49.960;8.018;2023-05-13T05:32:31;9.03;;;5.13;;
6987;SDS011;3534;49.960;8.018;2023-05-13T05:34:57;7.80;;;5.33;;
6987;SDS011;3534;49.960;8.018;2023-05-13T05:37:26;9.90;;;4.67;;
6987;SDS011;3534;49.960;8.018;2023-05-13T05:39:54;5.33;;;4.80;;
6987;SDS011;3534;49.960;8.018;2023-05-13T05:42:20;7.20;;;4.87;;
6987;SDS011;3534;49.960;8.018;2023-05-13T05:44:47;6.83;;;5.60;;
6987;SDS011;3534;49.960;8.018;2023-05-13T05:47:14;5.70;;;5.20;;
6987;SDS011;3534;49.960;8.018;2023-05-13T05:49:40;5.37;;;4.40;;
6987;SDS011;3534;49.960;8.018;2023-05-13T05:52:07;8.13;;;5.03;;
6987;SDS011;3534;49.960;8.018;2023-05-13T05:54:35;6.70;;;5.20;;
6987;SDS011;3534;49.960;8.018;2023-05-13T05:57:03;5.93;;;4.90;;
6987;SDS011;3534;49.960;8.018;2023-05-13T05:59:30;5.50;;;4.97;;
6987;SDS011;3534;49.960;8.018;2023-05-13T06:01:56;5.67;;;3.93;;
6987;SDS011;3534;49.960;8.018;2023-05-13T06:04:23;6.13;;;4.43;;
6987;SDS011;3534;49.960;8.018;2023-05-13T06:06:50;8.03;;;4.90;;
6987;SDS011;3534;49.960;8.018;2023-05-13T06:09:16;4.80;;;4.30;;
6987;SDS011;3534;49.960;8.018;2023-05-13T06:11:43;5.90;;;3.93;;
6987;SDS011;3534;49.960;8.018;2023-05-13T06:14:11;9.60;;;4.33;;
6987;SDS011;3534;49.960;8.018;2023-05-13T06:16:38;5.80;;;4.73;;
6987;SDS011;3534;49.960;8.018;2023-05-13T07:31:51;4.33;;;3.73;;
6987;SDS011;3534;49.960;8.018;2023-05-13T07:34:18;3.53;;;3.23;;
6987;SDS011;3534;49.960;8.018;2023-05-13T07:36:45;8.77;;;4.00;;
6987;SDS011;3534;49.960;8.018;2023-05-13T07:39:11;3.23;;;2.80;;
6987;SDS011;3534;49.960;8.018;2023-05-13T07:41:38;7.37;;;3.30;;
6987;SDS011;3534;49.960;8.018;2023-05-13T07:44:05;3.73;;;3.30;;
6987;SDS011;3534;49.960;8.018;2023-05-13T07:46:35;5.27;;;2.80;;
6987;SDS011;3534;49.960;8.018;2023-05-13T07:49:03;5.30;;;3.17;;
6987;SDS011;3534;49.960;8.018;2023-05-13T07:51:32;3.90;;;3.10;;
6987;SDS011;3534;49.960;8.018;2023-05-13T07:53:59;3.30;;;3.00;;
6987;SDS011;3534;49.960;8.018;2023-05-13T07:56:26;3.63;;;3.07;;
6987;SDS011;3534;49.960;8.018;2023-05-13T07:58:53;3.53;;;3.17;;
6987;SDS011;3534;49.960;8.018;2023-05-13T08:01:19;3.17;;;2.30;;
6987;SDS011;3534;49.960;8.018;2023-05-13T08:03:46;3.40;;;2.53;;
6987;SDS011;3534;49.960;8.018;2023-05-13T08:06:14;2.83;;;2.43;;
6987;SDS011;3534;49.960;8.018;2023-05-13T08:08:41;4.60;;;2.33;;
6987;SDS011;3534;49.960;8.018;2023-05-13T08:11:07;4.73;;;2.50;;
6987;SDS011;3534;49.960;8.018;2023-05-13T08:13:34;3.63;;;2.50;;
6987;SDS011;3534;49.960;8.018;2023-05-13T08:16:02;8.53;;;3.20;;
6987;SDS011;3534;49.960;8.018;2023-05-13T08:18:31;5.23;;;3.23;;
6987;SDS011;3534;49.960;8.018;2023-05-13T08:20:57;5.13;;;2.93;;
6987;SDS011;3534;49.960;8.018;2023-05-13T08:23:25;4.23;;;3.00;;
6987;SDS011;3534;49.960;8.018;2023-05-13T08:25:52;2.87;;;2.60;;
6987;SDS011;3534;49.960;8.018;2023-05-13T08:28:19;4.10;;;2.67;;
6987;SDS011;3534;49.960;8.018;2023-05-13T08:30:45;5.17;;;2.73;;
6987;SDS011;3534;49.960;8.018;2023-05-13T08:33:12;6.10;;;2.53;;
6987;SDS011;3534;49.960;8.018;2023-05-13T08:35:39;4.40;;;2.43;;
6987;SDS011;3534;49.960;8.018;2023-05-13T08:38:06;5.97;;;3.20;;
6987;SDS011;3534;49.960;8.018;2023-05-13T08:43:02;4.13;;;2.53;;
6987;SDS011;3534;49.960;8.018;2023-05-13T08:45:30;4.40;;;3.33;;
6987;SDS011;3534;49.960;8.018;2023-05-13T08:47:58;28.87;;;3.47;;
6987;SDS011;3534;49.960;8.018;2023-05-13T08:50:26;5.33;;;3.20;;
6987;SDS011;3534;49.960;8.018;2023-05-13T08:52:54;5.80;;;3.40;;
6987;SDS011;3534;49.960;8.018;2023-05-13T08:55:22;4.40;;;3.40;;
6987;SDS011;3534;49.960;8.018;2023-05-13T08:57:49;7.27;;;4.60;;
6987;SDS011;3534;49.960;8.018;2023-05-13T09:00:17;8.43;;;3.07;;
6987;SDS011;3534;49.960;8.018;2023-05-13T09:02:44;4.50;;;2.90;;
6987;SDS011;3534;49.960;8.018;2023-05-13T09:05:11;4.30;;;3.37;;
6987;SDS011;3534;49.960;8.018;2023-05-13T09:07:39;3.30;;;3.10;;
6987;SDS011;3534;49.960;8.018;2023-05-13T09:10:06;3.50;;;3.20;;
6987;SDS011;3534;49.960;8.018;2023-05-13T09:12:40;3.13;;;2.83;;
6987;SDS011;3534;49.960;8.018;2023-05-13T09:15:08;5.63;;;3.00;;
6987;SDS011;3534;49.960;8.018;2023-05-13T09:17:37;5.40;;;2.60;;
6987;SDS011;3534;49.960;8.018;2023-05-13T09:20:07;4.23;;;2.50;;
6987;SDS011;3534;49.960;8.018;2023-05-13T09:22:35;2.97;;;2.77;;
6987;SDS011;3534;49.960;8.018;2023-05-13T09:25:01;5.90;;;2.83;;
6987;SDS011;3534;49.960;8.018;2023-05-13T09:27:34;4.60;;;2.60;;
6987;SDS011;3534;49.960;8.018;2023-05-13T09:30:02;4.53;;;2.60;;
6987;SDS011;3534;49.960;8.018;2023-05-13T09:32:30;6.80;;;2.53;;
6987;SDS011;3534;49.960;8.018;2023-05-13T09:34:58;7.93;;;2.40;;
6987;SDS011;3534;49.960;8.018;2023-05-13T09:37:35;7.30;;;3.03;;
6987;SDS011;3534;49.960;8.018;2023-05-13T09:40:02;4.27;;;2.70;;
6987;SDS011;3534;49.960;8.018;2023-05-13T09:42:29;3.60;;;2.33;;
6987;SDS011;3534;49.960;8.018;2023-05-13T09:44:57;3.87;;;2.30;;
6987;SDS011;3534;49.960;8.018;2023-05-13T09:47:30;7.13;;;2.60;;
6987;SDS011;3534;49.960;8.018;2023-05-13T09:50:00;7.80;;;2.73;;
6987;SDS011;3534;49.960;8.018;2023-05-13T09:52:28;2.73;;;2.47;;
6987;SDS011;3534;49.960;8.018;2023-05-13T09:54:55;3.37;;;2.27;;
6987;SDS011;3534;49.960;8.018;2023-05-13T09:57:22;3.10;;;2.10;;
6987;SDS011;3534;49.960;8.018;2023-05-13T09:59:48;3.27;;;2.63;;
6987;SDS011;3534;49.960;8.018;2023-05-13T10:02:15;2.80;;;2.53;;
6987;SDS011;3534;49.960;8.018;2023-05-13T10:04:43;2.87;;;2.67;;
6987;SDS011;3534;49.960;8.018;2023-05-13T10:07:11;2.77;;;2.20;;
6987;SDS011;3534;49.960;8.018;2023-05-13T10:09:38;4.03;;;3.00;;
6987;SDS011;3534;49.960;8.018;2023-05-13T10:12:07;2.80;;;2.40;;
6987;SDS011;3534;49.960;8.018;2023-05-13T10:14:38;4.50;;;2.67;;
6987;SDS011;3534;49.960;8.018;2023-05-13T10:17:06;3.50;;;2.17;;
6987;SDS011;3534;49.960;8.018;2023-05-13T10:19:34;3.67;;;2.80;;
6987;SDS011;3534;49.960;8.018;2023-05-13T10:22:02;2.80;;;2.10;;
6987;SDS011;3534;49.960;8.018;2023-05-13T10:24:31;3.73;;;2.57;;
6987;SDS011;3534;49.960;8.018;2023-05-13T10:26:58;2.80;;;2.40;;
6987;SDS011;3534;49.960;8.018;2023-05-13T10:29:27;3.67;;;2.63;;
6987;SDS011;3534;49.960;8.018;2023-05-13T10:31:54;2.93;;;2.73;;
6987;SDS011;3534;49.960;8.018;2023-05-13T10:34:22;5.30;;;3.17;;
6987;SDS011;3534;49.960;8.018;2023-05-13T10:36:59;6.70;;;2.47;;
6987;SDS011;3534;49.960;8.018;2023-05-13T10:39:47;3.00;;;2.77;;
6987;SDS011;3534;49.960;8.018;2023-05-13T10:42:35;3.93;;;2.40;;
6987;SDS011;3534;49.960;8.018;2023-05-13T10:45:06;3.87;;;2.60;;
6987;SDS011;3534;49.960;8.018;2023-05-13T10:47:34;3.73;;;2.70;;
6987;SDS011;3534;49.960;8.018;2023-05-13T10:50:03;3.40;;;2.70;;
6987;SDS011;3534;49.960;8.018;2023-05-13T10:52:40;4.03;;;2.80;;
6987;SDS011;3534;49.960;8.018;2023-05-13T10:55:14;4.17;;;2.60;;
6987;SDS011;3534;49.960;8.018;2023-05-13T11:00:35;3.13;;;2.77;;
6987;SDS011;3534;49.960;8.018;2023-05-13T11:03:12;3.53;;;3.23;;
6987;SDS011;3534;49.960;8.018;2023-05-13T11:06:12;3.97;;;2.83;;
6987;SDS011;3534;49.960;8.018;2023-05-13T11:08:41;3.50;;;3.00;;
6987;SDS011;3534;49.960;8.018;2023-05-13T11:11:21;2.90;;;2.70;;
6987;SDS011;3534;49.960;8.018;2023-05-13T11:13:52;5.37;;;2.80;;
6987;SDS011;3534;49.960;8.018;2023-05-13T11:16:20;6.23;;;3.30;;
6987;SDS011;3534;49.960;8.018;2023-05-13T11:18:47;6.10;;;2.93;;
6987;SDS011;3534;49.960;8.018;2023-05-13T11:21:15;3.53;;;2.50;;
6987;SDS011;3534;49.960;8.018;2023-05-13T11:23:49;3.67;;;3.03;;
6987;SDS011;3534;49.960;8.018;2023-05-13T11:26:19;2.93;;;2.63;;
6987;SDS011;3534;49.960;8.018;2023-05-13T11:28:56;3.17;;;2.67;;
6987;SDS011;3534;49.960;8.018;2023-05-13T11:31:25;5.90;;;3.27;;
6987;SDS011;3534;49.960;8.018;2023-05-13T11:34:09;3.30;;;2.77;;
6987;SDS011;3534;49.960;8.018;2023-05-13T11:36:37;11.93;;;3.03;;
6987;SDS011;3534;49.960;8.018;2023-05-13T11:39:09;3.10;;;2.60;;
6987;SDS011;3534;49.960;8.018;2023-05-13T11:41:42;3.90;;;2.93;;
6987;SDS011;3534;49.960;8.018;2023-05-13T11:44:11;4.97;;;3.10;;
6987;SDS011;3534;49.960;8.018;2023-05-13T11:46:49;4.93;;;3.30;;
6987;SDS011;3534;49.960;8.018;2023-05-13T11:49:33;5.40;;;3.27;;
6987;SDS011;3534;49.960;8.018;2023-05-13T11:52:03;4.27;;;2.90;;
6987;SDS011;3534;49.960;8.018;2023-05-13T11:54:31;4.10;;;2.93;;
6987;SDS011;3534;49.960;8.018;2023-05-13T11:56:59;6.63;;;3.30;;
6987;SDS011;3534;49.960;8.018;2023-05-13T11:59:26;4.40;;;2.87;;
6987;SDS011;3534;49.960;8.018;2023-05-13T12:01:59;6.53;;;2.70;;
6987;SDS011;3534;49.960;8.018;2023-05-13T12:04:27;3.03;;;2.83;;
6987;SDS011;3534;49.960;8.018;2023-05-13T12:06:55;5.10;;;2.80;;
6987;SDS011;3534;49.960;8.018;2023-05-13T12:09:22;3.50;;;3.20;;
6987;SDS011;3534;49.960;8.018;2023-05-13T12:11:48;5.10;;;2.97;;
6987;SDS011;3534;49.960;8.018;2023-05-13T12:14:18;5.00;;;3.33;;
6987;SDS011;3534;49.960;8.018;2023-05-13T12:16:45;4.67;;;3.67;;
6987;SDS011;3534;49.960;8.018;2023-05-13T12:19:12;4.33;;;2.60;;
6987;SDS011;3534;49.960;8.018;2023-05-13T12:21:39;4.33;;;2.60;;
6987;SDS011;3534;49.960;8.018;2023-05-13T12:24:15;4.73;;;2.90;;
6987;SDS011;3534;49.960;8.018;2023-05-13T12:26:43;3.53;;;2.50;;
6987;SDS011;3534;49.960;8.018;2023-05-13T12:29:10;3.40;;;2.37;;
6987;SDS011;3534;49.960;8.018;2023-05-13T12:31:39;4.07;;;2.77;;
6987;SDS011;3534;49.960;8.018;2023-05-13T12:34:06;3.37;;;2.40;;
6987;SDS011;3534;49.960;8.018;2023-05-13T12:36:35;2.47;;;2.27;;
6987;SDS011;3534;49.960;8.018;2023-05-13T12:39:03;2.33;;;2.13;;
6987;SDS011;3534;49.960;8.018;2023-05-13T12:41:32;2.50;;;2.17;;
6987;SDS011;3534;49.960;8.018;2023-05-13T12:44:00;14.00;;;3.00;;
6987;SDS011;3534;49.960;8.018;2023-05-13T12:46:27;3.90;;;3.50;;
6987;SDS011;3534;49.960;8.018;2023-05-13T12:48:56;4.47;;;2.93;;
6987;SDS011;3534;49.960;8.018;2023-05-13T12:51:24;4.87;;;2.43;;
6987;SDS011;3534;49.960;8.018;2023-05-13T12:53:51;3.03;;;2.23;;
6987;SDS011;3534;49.960;8.018;2023-05-13T12:56:19;3.93;;;2.10;;
6987;SDS011;3534;49.960;8.018;2023-05-13T12:58:47;2.70;;;2.20;;
6987;SDS011;3534;49.960;8.018;2023-05-13T13:01:14;5.07;;;2.47;;
6987;SDS011;3534;49.960;8.018;2023-05-13T13:03:41;2.90;;;2.00;;
6987;SDS011;3534;49.960;8.018;2023-05-13T13:06:10;4.93;;;1.80;;
6987;SDS011;3534;49.960;8.018;2023-05-13T13:08:37;3.73;;;1.97;;
6987;SDS011;3534;49.960;8.018;2023-05-13T13:11:04;2.60;;;2.10;;
6987;SDS011;3534;49.960;8.018;2023-05-13T13:13:31;3.27;;;2.30;;
6987;SDS011;3534;49.960;8.018;2023-05-13T13:15:58;3.80;;;2.00;;
6987;SDS011;3534;49.960;8.018;2023-05-13T13:18:25;6.67;;;2.20;;
6987;SDS011;3534;49.960;8.018;2023-05-13T13:20:52;3.00;;;2.80;;
6987;SDS011;3534;49.960;8.018;2023-05-13T13:23:21;2.40;;;2.23;;
6987;SDS011;3534;49.960;8.018;2023-05-13T13:25:47;4.30;;;2.67;;
6987;SDS011;3534;49.960;8.018;2023-05-13T13:28:14;5.60;;;2.73;;
6987;SDS011;3534;49.960;8.018;2023-05-13T13:30:41;5.60;;;2.57;;
6987;SDS011;3534;49.960;8.018;2023-05-13T13:33:11;3.40;;;3.00;;
6987;SDS011;3534;49.960;8.018;2023-05-13T13:35:38;3.80;;;2.40;;
6987;SDS011;3534;49.960;8.018;2023-05-13T13:38:05;2.63;;;2.43;;
6987;SDS011;3534;49.960;8.018;2023-05-13T13:40:34;4.83;;;2.80;;
6987;SDS011;3534;49.960;8.018;2023-05-13T13:43:01;2.90;;;2.40;;
6987;SDS011;3534;49.960;8.018;2023-05-13T13:45:27;2.63;;;2.43;;
6987;SDS011;3534;49.960;8.018;2023-05-13T13:47:54;3.13;;;2.60;;
6987;SDS011;3534;49.960;8.018;2023-05-13T13:50:21;3.27;;;2.40;;
6987;SDS011;3534;49.960;8.018;2023-05-13T13:52:47;4.17;;;3.00;;
6987;SDS011;3534;49.960;8.018;2023-05-13T13:55:16;4.13;;;2.27;;
6987;SDS011;3534;49.960;8.018;2023-05-13T13:57:44;4.87;;;2.53;;
6987;SDS011;3534;49.960;8.018;2023-05-13T14:00:11;2.27;;;1.90;;
6987;SDS011;3534;49.960;8.018;2023-05-13T14:02:39;4.63;;;1.90;;
6987;SDS011;3534;49.960;8.018;2023-05-13T14:05:06;12.83;;;2.30;;
6987;SDS011;3534;49.960;8.018;2023-05-13T14:07:33;2.47;;;2.10;;
6987;SDS011;3534;49.960;8.018;2023-05-13T14:10:00;2.43;;;2.23;;
6987;SDS011;3534;49.960;8.018;2023-05-13T14:12:27;2.90;;;2.20;;
6987;SDS011;3534;49.960;8.018;2023-05-13T14:14:55;4.40;;;2.40;;
6987;SDS011;3534;49.960;8.018;2023-05-13T14:17:22;3.40;;;2.27;;
6987;SDS011;3534;49.960;8.018;2023-05-13T14:19:49;2.20;;;2.00;;
6987;SDS011;3534;49.960;8.018;2023-05-13T14:22:19;3.13;;;1.83;;
6987;SDS011;3534;49.960;8.018;2023-05-13T14:24:46;2.13;;;1.93;;
6987;SDS011;3534;49.960;8.018;2023-05-13T14:27:12;2.27;;;1.90;;
6987;SDS011;3534;49.960;8.018;2023-05-13T14:29:39;6.90;;;1.77;;
6987;SDS011;3534;49.960;8.018;2023-05-13T14:32:07;2.70;;;1.60;;
6987;SDS011;3534;49.960;8.018;2023-05-13T14:34:34;2.30;;;2.10;;
6987;SDS011;3534;49.960;8.018;2023-05-13T14:37:01;1.87;;;1.60;;
6987;SDS011;3534;49.960;8.018;2023-05-13T14:39:27;1.93;;;1.73;;
6987;SDS011;3534;49.960;8.018;2023-05-13T14:41:54;3.33;;;1.60;;
6987;SDS011;3534;49.960;8.018;2023-05-13T14:44:21;4.40;;;2.10;;
6987;SDS011;3534;49.960;8.018;2023-05-13T14:46:48;1.67;;;1.57;;
6987;SDS011;3534;49.960;8.018;2023-05-13T14:49:16;2.10;;;1.83;;
6987;SDS011;3534;49.960;8.018;2023-05-13T14:51:43;2.07;;;1.87;;
6987;SDS011;3534;49.960;8.018;2023-05-13T14:54:10;1.93;;;1.70;;
6987;SDS011;3534;49.960;8.018;2023-05-13T14:56:36;3.43;;;1.90;;
6987;SDS011;3534;49.960;8.018;2023-05-13T14:59:05;1.73;;;1.60;;
6987;SDS011;3534;49.960;8.018;2023-05-13T15:01:32;2.20;;;2.00;;
6987;SDS011;3534;49.960;8.018;2023-05-13T15:03:59;5.43;;;1.70;;
6987;SDS011;3534;49.960;8.018;2023-05-13T15:06:27;4.43;;;1.90;;
6987;SDS011;3534;49.960;8.018;2023-05-13T15:08:54;2.47;;;1.73;;
6987;SDS011;3534;49.960;8.018;2023-05-13T15:11:21;2.70;;;1.80;;
6987;SDS011;3534;49.960;8.018;2023-05-13T15:13:48;2.77;;;1.40;;
6987;SDS011;3534;49.960;8.018;2023-05-13T15:16:15;2.33;;;1.80;;
6987;SDS011;3534;49.960;8.018;2023-05-13T15:18:42;4.03;;;1.70;;
6987;SDS011;3534;49.960;8.018;2023-05-13T15:21:09;3.30;;;2.23;;
6987;SDS011;3534;49.960;8.018;2023-05-13T15:23:37;2.50;;;2.10;;
6987;SDS011;3534;49.960;8.018;2023-05-13T15:26:03;2.20;;;1.33;;
6987;SDS011;3534;49.960;8.018;2023-05-13T15:28:30;2.40;;;2.13;;
6987;SDS011;3534;49.960;8.018;2023-05-13T15:30:57;1.67;;;1.57;;
6987;SDS011;3534;49.960;8.018;2023-05-13T15:33:24;2.03;;;1.73;;
6987;SDS011;3534;49.960;8.018;2023-05-13T15:35:51;2.60;;;2.00;;
6987;SDS011;3534;49.960;8.018;2023-05-13T15:38:18;3.03;;;2.17;;
6987;SDS011;3534;49.960;8.018;2023-05-13T15:40:46;1.90;;;1.70;;
6987;SDS011;3534;49.960;8.018;2023-05-13T15:43:12;5.00;;;1.80;;
6987;SDS011;3534;49.960;8.018;2023-05-13T15:45:39;4.03;;;2.00;;
6987;SDS011;3534;49.960;8.018;2023-05-13T15:48:06;4.03;;;1.87;;
6987;SDS011;3534;49.960;8.018;2023-05-13T15:50:33;3.80;;;1.70;;
6987;SDS011;3534;49.960;8.018;2023-05-13T15:53:00;3.13;;;1.70;;
6987;SDS011;3534;49.960;8.018;2023-05-13T15:55:26;1.70;;;1.60;;
6987;SDS011;3534;49.960;8.018;2023-05-13T15:57:55;2.73;;;2.20;;
6987;SDS011;3534;49.960;8.018;2023-05-13T16:00:21;4.67;;;2.17;;
6987;SDS011;3534;49.960;8.018;2023-05-13T16:02:48;4.53;;;2.10;;
6987;SDS011;3534;49.960;8.018;2023-05-13T16:05:15;3.03;;;2.20;;
6987;SDS011;3534;49.960;8.018;2023-05-13T16:07:43;2.30;;;2.07;;
6987;SDS011;3534;49.960;8.018;2023-05-13T16:10:10;2.80;;;1.90;;
6987;SDS011;3534;49.960;8.018;2023-05-13T16:12:36;3.33;;;2.10;;
6987;SDS011;3534;49.960;8.018;2023-05-13T16:15:05;3.20;;;2.07;;
6987;SDS011;3534;49.960;8.018;2023-05-13T16:17:32;3.20;;;2.50;;
6987;SDS011;3534;49.960;8.018;2023-05-13T16:20:00;3.17;;;2.00;;
6987;SDS011;3534;49.960;8.018;2023-05-13T16:22:28;2.60;;;2.00;;
6987;SDS011;3534;49.960;8.018;2023-05-13T16:24:57;2.23;;;2.00;;
6987;SDS011;3534;49.960;8.018;2023-05-13T16:27:25;2.50;;;2.13;;
6987;SDS011;3534;49.960;8.018;2023-05-13T16:29:52;2.70;;;2.10;;
6987;SDS011;3534;49.960;8.018;2023-05-13T16:32:21;4.57;;;2.10;;
6987;SDS011;3534;49.960;8.018;2023-05-13T16:34:47;2.50;;;2.20;;
6987;SDS011;3534;49.960;8.018;2023-05-13T16:37:14;3.93;;;2.00;;